Portland, Oregon
Traffic Map
Current Weather Conditions
Portland, Oregon
Clear
Clear
81°
Feels Like: 81°
Wind Chill: 81° Ceiling: Unl
Heat Index: 81° Visibility: 10mi
Dew Point: 55° Wind: 8mph
Humidity: 41% Direction: 340° (NNW)
Pressure: 29.97in Gusts: 0mph
Raw Report DataKPDX 270153Z 34007KT 10SM CLR 27/13 A2997 RMK AO2 SLP147 T02720128
Traffic Incident Summary
Active as of:
Severity:
Category:
InformationThere was an issue retrieving the traffic information for this location. Please try a different location or try again shortly.
Advertisements
Track Severe Weather on mobile